ASXG CYKF-CYKF
Flight info
| Callsign | ASXG |
|---|---|
| Flight time | 0h 11m |
| Altitude | 3000 |
| Route | |
| Aircraft | C172 |
Departure
| Time | 2026-05-06 02:26 |
|---|---|
| Airport | Region of Waterloo International Airport (CYKF) |
Arrival
| Time | 2026-05-06 02:38 |
|---|---|
| Airport | Region of Waterloo International Airport (CYKF) |
| Time | Latitude | Longitude | Altitude | Speed | Heading |
|---|---|---|---|---|---|
| 2026-05-06 02:17 | 43.45662 | -80.38600 | 1030 ft | 0 kts | 211° |
| 2026-05-06 02:20 | 43.45673 | -80.38613 | 1030 ft | 8 kts | 12° |
| 2026-05-06 02:21 | 43.45713 | -80.38605 | 1031 ft | 4 kts | 22° |
| 2026-05-06 02:21 | 43.45747 | -80.38592 | 1031 ft | 9 kts | 302° |
| 2026-05-06 02:21 | 43.45729 | -80.38682 | 1031 ft | 10 kts | 245° |
| 2026-05-06 02:21 | 43.45696 | -80.38780 | 1031 ft | 11 kts | 246° |
| 2026-05-06 02:22 | 43.45673 | -80.38864 | 1030 ft | 8 kts | 279° |
| 2026-05-06 02:22 | 43.45711 | -80.38905 | 1031 ft | 6 kts | 336° |
| 2026-05-06 02:22 | 43.45724 | -80.38913 | 1031 ft | 0 kts | 336° |
| 2026-05-06 02:25 | 43.45756 | -80.38932 | 1032 ft | 13 kts | 339° |
| 2026-05-06 02:25 | 43.45822 | -80.38895 | 1034 ft | 10 kts | 62° |
| 2026-05-06 02:25 | 43.45835 | -80.38858 | 1034 ft | 0 kts | 66° |
| 2026-05-06 02:25 | 43.45853 | -80.38807 | 1033 ft | 24 kts | 66° |
| 2026-05-06 02:26 | 43.46005 | -80.38360 | 1031 ft | 75 kts | 66° |
| 2026-05-06 02:26 | 43.46235 | -80.37677 | 1257 ft | 77 kts | 66° |
| 2026-05-06 02:26 | 43.46495 | -80.36997 | 1442 ft | 84 kts | 70° |
| 2026-05-06 02:26 | 43.46741 | -80.36252 | 1672 ft | 86 kts | 59° |
| 2026-05-06 02:27 | 43.47314 | -80.36007 | 1759 ft | 102 kts | 339° |
| 2026-05-06 02:27 | 43.47972 | -80.36436 | 1888 ft | 111 kts | 336° |
| 2026-05-06 02:27 | 43.48709 | -80.36861 | 2002 ft | 117 kts | 330° |
| 2026-05-06 02:27 | 43.49209 | -80.37712 | 2140 ft | 115 kts | 281° |
| 2026-05-06 02:28 | 43.49085 | -80.38756 | 2314 ft | 110 kts | 247° |
| 2026-05-06 02:28 | 43.48828 | -80.39772 | 2407 ft | 114 kts | 251° |
| 2026-05-06 02:28 | 43.48559 | -80.40774 | 2568 ft | 111 kts | 250° |
| 2026-05-06 02:28 | 43.48313 | -80.41809 | 2591 ft | 116 kts | 251° |
| 2026-05-06 02:29 | 43.48073 | -80.42890 | 2544 ft | 120 kts | 252° |
| 2026-05-06 02:29 | 43.47526 | -80.43602 | 2510 ft | 110 kts | 197° |
| 2026-05-06 02:29 | 43.46806 | -80.43498 | 2397 ft | 106 kts | 156° |
| 2026-05-06 02:29 | 43.46170 | -80.43028 | 2238 ft | 98 kts | 155° |
| 2026-05-06 02:30 | 43.45641 | -80.42632 | 2112 ft | 78 kts | 153° |
| 2026-05-06 02:30 | 43.45238 | -80.42150 | 1979 ft | 77 kts | 125° |
| 2026-05-06 02:30 | 43.45125 | -80.41464 | 1842 ft | 68 kts | 89° |
| 2026-05-06 02:30 | 43.45204 | -80.40845 | 1615 ft | 67 kts | 75° |
| 2026-05-06 02:31 | 43.45383 | -80.40233 | 1418 ft | 69 kts | 70° |
| 2026-05-06 02:31 | 43.45577 | -80.39645 | 1237 ft | 66 kts | 71° |
| 2026-05-06 02:31 | 43.45769 | -80.39061 | 1098 ft | 67 kts | 70° |
| 2026-05-06 02:31 | 43.45936 | -80.38557 | 1032 ft | 52 kts | 66° |
| 2026-05-06 02:32 | 43.46146 | -80.37949 | 1092 ft | 82 kts | 68° |
| 2026-05-06 02:32 | 43.46410 | -80.37216 | 1272 ft | 89 kts | 66° |
| 2026-05-06 02:32 | 43.46707 | -80.36463 | 1480 ft | 91 kts | 63° |
| 2026-05-06 02:32 | 43.47082 | -80.35771 | 1679 ft | 95 kts | 26° |
| 2026-05-06 02:33 | 43.47702 | -80.35993 | 1876 ft | 99 kts | 328° |
| 2026-05-06 02:33 | 43.48147 | -80.36294 | 1869 ft | 115 kts | 333° |
| 2026-05-06 02:33 | 43.49440 | -80.38115 | 1870 ft | 125 kts | 256° |
| 2026-05-06 02:34 | 43.49120 | -80.39233 | 1869 ft | 126 kts | 245° |
| 2026-05-06 02:34 | 43.48776 | -80.40344 | 1867 ft | 126 kts | 245° |
| 2026-05-06 02:34 | 43.48430 | -80.41451 | 1867 ft | 126 kts | 245° |
| 2026-05-06 02:34 | 43.48093 | -80.42563 | 1865 ft | 126 kts | 245° |
| 2026-05-06 02:35 | 43.47750 | -80.43674 | 1864 ft | 126 kts | 245° |
| 2026-05-06 02:35 | 43.47401 | -80.44782 | 1860 ft | 126 kts | 242° |
| 2026-05-06 02:35 | 43.46713 | -80.45417 | 1850 ft | 124 kts | 182° |
| 2026-05-06 02:35 | 43.45909 | -80.45032 | 1857 ft | 123 kts | 154° |
| 2026-05-06 02:36 | 43.45171 | -80.44535 | 1835 ft | 102 kts | 155° |
| 2026-05-06 02:36 | 43.44662 | -80.44141 | 1844 ft | 73 kts | 140° |
| 2026-05-06 02:36 | 43.44434 | -80.43513 | 1803 ft | 79 kts | 92° |
| 2026-05-06 02:36 | 43.44511 | -80.42770 | 1743 ft | 76 kts | 74° |
| 2026-05-06 02:37 | 43.44737 | -80.42130 | 1682 ft | 72 kts | 71° |
| 2026-05-06 02:37 | 43.44948 | -80.41500 | 1570 ft | 72 kts | 75° |
| 2026-05-06 02:37 | 43.45146 | -80.40874 | 1473 ft | 70 kts | 72° |
| 2026-05-06 02:37 | 43.45357 | -80.40275 | 1354 ft | 68 kts | 71° |
| 2026-05-06 02:38 | 43.45550 | -80.39693 | 1240 ft | 67 kts | 71° |
| 2026-05-06 02:38 | 43.45748 | -80.39119 | 1108 ft | 65 kts | 72° |
| 2026-05-06 02:38 | 43.45910 | -80.38619 | 1032 ft | 44 kts | 71° |
| 2026-05-06 02:38 | 43.46064 | -80.38165 | 1047 ft | 62 kts | 67° |
| 2026-05-06 02:39 | 43.46263 | -80.37652 | 1173 ft | 61 kts | 63° |
| 2026-05-06 02:39 | 43.46479 | -80.37109 | 1256 ft | 76 kts | 63° |
| 2026-05-06 02:39 | 43.46744 | -80.36431 | 1424 ft | 85 kts | 63° |
| 2026-05-06 02:39 | 43.47040 | -80.35685 | 1595 ft | 92 kts | 60° |
| 2026-05-06 02:40 | 43.47642 | -80.35411 | 1733 ft | 105 kts | 341° |
| 2026-05-06 02:40 | 43.48334 | -80.35819 | 1865 ft | 115 kts | 339° |
| 2026-05-06 02:40 | 43.49100 | -80.36257 | 1868 ft | 126 kts | 338° |
| 2026-05-06 02:40 | 43.49853 | -80.36904 | 1851 ft | 129 kts | 304° |
| 2026-05-06 02:41 | 43.49938 | -80.38076 | 1853 ft | 126 kts | 251° |
| 2026-05-06 02:41 | 43.49635 | -80.39209 | 1863 ft | 126 kts | 249° |
| 2026-05-06 02:41 | 43.49327 | -80.40347 | 1860 ft | 126 kts | 245° |
| 2026-05-06 02:41 | 43.48936 | -80.41425 | 1858 ft | 126 kts | 242° |
| 2026-05-06 02:42 | 43.48541 | -80.42480 | 1857 ft | 126 kts | 241° |
| 2026-05-06 02:42 | 43.48141 | -80.43566 | 1857 ft | 126 kts | 242° |
| 2026-05-06 02:42 | 43.47737 | -80.44637 | 1860 ft | 126 kts | 242° |
| 2026-05-06 02:42 | 43.47338 | -80.45700 | 1856 ft | 127 kts | 242° |
| 2026-05-06 02:43 | 43.46888 | -80.46726 | 1847 ft | 125 kts | 221° |
| 2026-05-06 02:43 | 43.46079 | -80.46938 | 1845 ft | 123 kts | 161° |
| 2026-05-06 02:43 | 43.45557 | -80.46076 | 1846 ft | 125 kts | 103° |
| 2026-05-06 02:43 | 43.45219 | -80.45026 | 1861 ft | 121 kts | 130° |
| 2026-05-06 02:44 | 43.44754 | -80.44064 | 1877 ft | 124 kts | 111° |
| 2026-05-06 02:44 | 43.44703 | -80.42940 | 1797 ft | 102 kts | 90° |
| 2026-05-06 02:44 | 43.44823 | -80.42139 | 1738 ft | 74 kts | 80° |
| 2026-05-06 02:44 | 43.44985 | -80.41502 | 1614 ft | 69 kts | 70° |
| 2026-05-06 02:45 | 43.45167 | -80.40905 | 1509 ft | 68 kts | 73° |
| 2026-05-06 02:45 | 43.45350 | -80.40321 | 1380 ft | 64 kts | 69° |
| 2026-05-06 02:45 | 43.45535 | -80.39762 | 1250 ft | 64 kts | 70° |
| 2026-05-06 02:45 | 43.45718 | -80.39210 | 1117 ft | 65 kts | 68° |
| 2026-05-06 02:46 | 43.45910 | -80.38649 | 1040 ft | 56 kts | 69° |
| 2026-05-06 02:46 | 43.45987 | -80.38406 | 1030 ft | 39 kts | 66° |